sensor_id;sensor_type;location;lat;lon;timestamp;P1;durP1;ratioP1;P2;durP2;ratioP2
56997;SDS011;42890;44.244;22.530;2022-08-01T00:01:39;6.57;;;1.90;;
56997;SDS011;42890;44.244;22.530;2022-08-01T00:04:05;2.45;;;1.60;;
56997;SDS011;42890;44.244;22.530;2022-08-01T00:06:31;3.88;;;1.77;;
56997;SDS011;42890;44.244;22.530;2022-08-01T00:08:57;5.45;;;1.63;;
56997;SDS011;42890;44.244;22.530;2022-08-01T00:11:23;9.52;;;2.17;;
56997;SDS011;42890;44.244;22.530;2022-08-01T00:13:50;3.95;;;1.70;;
56997;SDS011;42890;44.244;22.530;2022-08-01T00:16:16;7.18;;;1.98;;
56997;SDS011;42890;44.244;22.530;2022-08-01T00:18:42;8.95;;;1.85;;
56997;SDS011;42890;44.244;22.530;2022-08-01T00:21:08;3.45;;;1.88;;
56997;SDS011;42890;44.244;22.530;2022-08-01T00:23:34;4.22;;;1.75;;
56997;SDS011;42890;44.244;22.530;2022-08-01T00:26:00;2.42;;;1.65;;
56997;SDS011;42890;44.244;22.530;2022-08-01T00:28:27;4.80;;;2.15;;
56997;SDS011;42890;44.244;22.530;2022-08-01T00:30:53;5.20;;;1.63;;
56997;SDS011;42890;44.244;22.530;2022-08-01T00:33:19;10.05;;;1.90;;
56997;SDS011;42890;44.244;22.530;2022-08-01T00:35:45;4.50;;;1.95;;
56997;SDS011;42890;44.244;22.530;2022-08-01T00:38:11;3.38;;;1.65;;
56997;SDS011;42890;44.244;22.530;2022-08-01T00:40:37;4.13;;;2.40;;
56997;SDS011;42890;44.244;22.530;2022-08-01T00:43:03;2.30;;;1.67;;
56997;SDS011;42890;44.244;22.530;2022-08-01T00:45:30;5.70;;;2.00;;
56997;SDS011;42890;44.244;22.530;2022-08-01T00:47:56;5.75;;;1.60;;
56997;SDS011;42890;44.244;22.530;2022-08-01T00:50:22;3.70;;;1.73;;
56997;SDS011;42890;44.244;22.530;2022-08-01T00:52:48;5.93;;;1.52;;
56997;SDS011;42890;44.244;22.530;2022-08-01T00:55:15;4.25;;;2.10;;
56997;SDS011;42890;44.244;22.530;2022-08-01T00:57:41;14.32;;;2.17;;
56997;SDS011;42890;44.244;22.530;2022-08-01T01:00:10;4.32;;;1.70;;
56997;SDS011;42890;44.244;22.530;2022-08-01T01:02:36;5.90;;;1.98;;
56997;SDS011;42890;44.244;22.530;2022-08-01T01:05:03;9.02;;;1.75;;
56997;SDS011;42890;44.244;22.530;2022-08-01T01:07:32;3.13;;;1.58;;
56997;SDS011;42890;44.244;22.530;2022-08-01T01:10:09;4.63;;;2.05;;
56997;SDS011;42890;44.244;22.530;2022-08-01T01:15:18;4.25;;;1.60;;
56997;SDS011;42890;44.244;22.530;2022-08-01T01:17:48;4.20;;;1.60;;
56997;SDS011;42890;44.244;22.530;2022-08-01T01:20:17;5.15;;;2.03;;
56997;SDS011;42890;44.244;22.530;2022-08-01T01:25:33;5.43;;;1.63;;
56997;SDS011;42890;44.244;22.530;2022-08-01T01:30:32;11.00;;;1.60;;
56997;SDS011;42890;44.244;22.530;2022-08-01T01:33:00;6.65;;;1.63;;
56997;SDS011;42890;44.244;22.530;2022-08-01T01:35:28;5.13;;;2.00;;
56997;SDS011;42890;44.244;22.530;2022-08-01T01:38:04;5.75;;;2.10;;
56997;SDS011;42890;44.244;22.530;2022-08-01T01:40:30;3.33;;;1.80;;
56997;SDS011;42890;44.244;22.530;2022-08-01T01:42:57;3.50;;;1.60;;
56997;SDS011;42890;44.244;22.530;2022-08-01T01:45:23;8.77;;;2.10;;
56997;SDS011;42890;44.244;22.530;2022-08-01T01:47:50;3.92;;;1.60;;
56997;SDS011;42890;44.244;22.530;2022-08-01T01:50:17;2.95;;;1.70;;
56997;SDS011;42890;44.244;22.530;2022-08-01T01:52:45;2.40;;;1.67;;
56997;SDS011;42890;44.244;22.530;2022-08-01T01:55:12;8.10;;;1.70;;
56997;SDS011;42890;44.244;22.530;2022-08-01T01:57:40;5.03;;;2.00;;
56997;SDS011;42890;44.244;22.530;2022-08-01T02:00:07;3.42;;;1.80;;
56997;SDS011;42890;44.244;22.530;2022-08-01T02:02:34;3.88;;;1.70;;
56997;SDS011;42890;44.244;22.530;2022-08-01T02:05:02;4.07;;;1.70;;
56997;SDS011;42890;44.244;22.530;2022-08-01T02:07:28;1.70;;;1.60;;
56997;SDS011;42890;44.244;22.530;2022-08-01T02:09:54;4.20;;;1.75;;
56997;SDS011;42890;44.244;22.530;2022-08-01T02:12:22;5.07;;;1.77;;
56997;SDS011;42890;44.244;22.530;2022-08-01T02:14:53;2.58;;;1.73;;
56997;SDS011;42890;44.244;22.530;2022-08-01T02:17:19;3.33;;;1.40;;
56997;SDS011;42890;44.244;22.530;2022-08-01T02:19:46;3.03;;;1.70;;
56997;SDS011;42890;44.244;22.530;2022-08-01T02:27:28;3.70;;;1.52;;
56997;SDS011;42890;44.244;22.530;2022-08-01T02:29:59;2.25;;;1.60;;
56997;SDS011;42890;44.244;22.530;2022-08-01T02:32:30;6.43;;;1.92;;
56997;SDS011;42890;44.244;22.530;2022-08-01T02:34:58;2.65;;;1.88;;
56997;SDS011;42890;44.244;22.530;2022-08-01T02:37:26;4.90;;;2.00;;
56997;SDS011;42890;44.244;22.530;2022-08-01T02:39:53;4.10;;;1.95;;
56997;SDS011;42890;44.244;22.530;2022-08-01T02:42:20;5.03;;;1.73;;
56997;SDS011;42890;44.244;22.530;2022-08-01T02:44:49;5.90;;;1.70;;
56997;SDS011;42890;44.244;22.530;2022-08-01T02:47:15;4.40;;;1.73;;
56997;SDS011;42890;44.244;22.530;2022-08-01T02:49:45;3.20;;;1.80;;
56997;SDS011;42890;44.244;22.530;2022-08-01T02:52:13;3.38;;;1.90;;
56997;SDS011;42890;44.244;22.530;2022-08-01T02:54:40;2.08;;;1.80;;
56997;SDS011;42890;44.244;22.530;2022-08-01T02:57:08;2.22;;;1.95;;
56997;SDS011;42890;44.244;22.530;2022-08-01T02:59:36;8.30;;;1.60;;
56997;SDS011;42890;44.244;22.530;2022-08-01T03:02:03;5.22;;;1.70;;
56997;SDS011;42890;44.244;22.530;2022-08-01T03:04:30;3.10;;;1.80;;
56997;SDS011;42890;44.244;22.530;2022-08-01T03:06:58;4.05;;;1.80;;
56997;SDS011;42890;44.244;22.530;2022-08-01T03:09:26;6.28;;;2.13;;
56997;SDS011;42890;44.244;22.530;2022-08-01T03:11:53;6.07;;;2.00;;
56997;SDS011;42890;44.244;22.530;2022-08-01T03:14:21;3.53;;;2.10;;
56997;SDS011;42890;44.244;22.530;2022-08-01T03:16:49;1.85;;;1.55;;
56997;SDS011;42890;44.244;22.530;2022-08-01T03:19:17;2.13;;;1.60;;
56997;SDS011;42890;44.244;22.530;2022-08-01T03:21:44;5.30;;;1.92;;
56997;SDS011;42890;44.244;22.530;2022-08-01T03:24:11;3.92;;;2.13;;
56997;SDS011;42890;44.244;22.530;2022-08-01T03:26:38;1.95;;;1.83;;
56997;SDS011;42890;44.244;22.530;2022-08-01T03:29:10;3.33;;;1.95;;
56997;SDS011;42890;44.244;22.530;2022-08-01T03:31:38;5.00;;;2.33;;
56997;SDS011;42890;44.244;22.530;2022-08-01T03:34:07;2.05;;;1.85;;
56997;SDS011;42890;44.244;22.530;2022-08-01T03:36:34;2.38;;;1.60;;
56997;SDS011;42890;44.244;22.530;2022-08-01T03:39:03;6.50;;;1.90;;
56997;SDS011;42890;44.244;22.530;2022-08-01T03:41:32;3.72;;;1.80;;
56997;SDS011;42890;44.244;22.530;2022-08-01T03:44:00;3.30;;;1.85;;
56997;SDS011;42890;44.244;22.530;2022-08-01T03:46:40;2.15;;;1.95;;
56997;SDS011;42890;44.244;22.530;2022-08-01T03:49:10;3.85;;;2.00;;
56997;SDS011;42890;44.244;22.530;2022-08-01T03:51:37;4.10;;;1.92;;
56997;SDS011;42890;44.244;22.530;2022-08-01T03:54:04;4.85;;;2.63;;
56997;SDS011;42890;44.244;22.530;2022-08-01T03:56:30;2.72;;;2.42;;
56997;SDS011;42890;44.244;22.530;2022-08-01T03:59:01;5.53;;;2.30;;
56997;SDS011;42890;44.244;22.530;2022-08-01T04:01:28;4.28;;;2.50;;
56997;SDS011;42890;44.244;22.530;2022-08-01T04:03:57;4.50;;;2.03;;
56997;SDS011;42890;44.244;22.530;2022-08-01T04:06:24;3.25;;;2.30;;
56997;SDS011;42890;44.244;22.530;2022-08-01T04:08:50;3.83;;;1.98;;
56997;SDS011;42890;44.244;22.530;2022-08-01T04:11:23;4.10;;;2.17;;
56997;SDS011;42890;44.244;22.530;2022-08-01T04:13:51;5.60;;;2.67;;
56997;SDS011;42890;44.244;22.530;2022-08-01T04:16:18;6.13;;;2.65;;
56997;SDS011;42890;44.244;22.530;2022-08-01T04:18:44;3.67;;;2.50;;
56997;SDS011;42890;44.244;22.530;2022-08-01T04:21:10;4.60;;;2.08;;
56997;SDS011;42890;44.244;22.530;2022-08-01T04:23:36;4.55;;;1.90;;
56997;SDS011;42890;44.244;22.530;2022-08-01T04:26:04;2.65;;;1.90;;
56997;SDS011;42890;44.244;22.530;2022-08-01T04:28:31;2.53;;;2.15;;
56997;SDS011;42890;44.244;22.530;2022-08-01T04:31:00;3.90;;;2.55;;
56997;SDS011;42890;44.244;22.530;2022-08-01T04:33:26;3.85;;;2.15;;
56997;SDS011;42890;44.244;22.530;2022-08-01T04:35:54;5.47;;;2.25;;
56997;SDS011;42890;44.244;22.530;2022-08-01T04:38:22;3.53;;;2.10;;
56997;SDS011;42890;44.244;22.530;2022-08-01T04:40:52;7.10;;;2.92;;
56997;SDS011;42890;44.244;22.530;2022-08-01T04:43:19;5.10;;;2.20;;
56997;SDS011;42890;44.244;22.530;2022-08-01T04:45:46;4.82;;;2.50;;
56997;SDS011;42890;44.244;22.530;2022-08-01T04:48:13;5.88;;;2.42;;
56997;SDS011;42890;44.244;22.530;2022-08-01T04:50:41;6.78;;;2.42;;
56997;SDS011;42890;44.244;22.530;2022-08-01T04:53:18;3.90;;;2.13;;
56997;SDS011;42890;44.244;22.530;2022-08-01T04:55:46;4.65;;;2.17;;
56997;SDS011;42890;44.244;22.530;2022-08-01T04:58:14;3.35;;;2.03;;
56997;SDS011;42890;44.244;22.530;2022-08-01T05:00:40;9.00;;;2.28;;
56997;SDS011;42890;44.244;22.530;2022-08-01T05:03:06;5.75;;;2.20;;
56997;SDS011;42890;44.244;22.530;2022-08-01T05:05:34;3.88;;;2.05;;
56997;SDS011;42890;44.244;22.530;2022-08-01T05:08:00;4.13;;;2.00;;
56997;SDS011;42890;44.244;22.530;2022-08-01T05:10:26;2.33;;;2.10;;
56997;SDS011;42890;44.244;22.530;2022-08-01T05:12:52;3.78;;;2.00;;
56997;SDS011;42890;44.244;22.530;2022-08-01T05:15:19;5.15;;;2.13;;
56997;SDS011;42890;44.244;22.530;2022-08-01T05:17:46;2.78;;;2.20;;
56997;SDS011;42890;44.244;22.530;2022-08-01T05:20:12;4.63;;;2.13;;
56997;SDS011;42890;44.244;22.530;2022-08-01T05:22:38;4.03;;;2.33;;
56997;SDS011;42890;44.244;22.530;2022-08-01T05:25:04;5.40;;;2.08;;
56997;SDS011;42890;44.244;22.530;2022-08-01T05:27:31;4.53;;;2.38;;
56997;SDS011;42890;44.244;22.530;2022-08-01T05:29:57;5.13;;;1.83;;
56997;SDS011;42890;44.244;22.530;2022-08-01T05:32:23;2.65;;;1.88;;
56997;SDS011;42890;44.244;22.530;2022-08-01T05:34:49;3.45;;;1.90;;
56997;SDS011;42890;44.244;22.530;2022-08-01T05:37:16;2.95;;;1.70;;
56997;SDS011;42890;44.244;22.530;2022-08-01T05:39:42;3.38;;;1.80;;
56997;SDS011;42890;44.244;22.530;2022-08-01T05:42:08;3.70;;;2.05;;
56997;SDS011;42890;44.244;22.530;2022-08-01T05:44:34;4.53;;;2.00;;
56997;SDS011;42890;44.244;22.530;2022-08-01T05:47:00;4.97;;;2.10;;
56997;SDS011;42890;44.244;22.530;2022-08-01T05:49:27;3.70;;;2.20;;
56997;SDS011;42890;44.244;22.530;2022-08-01T05:51:53;2.60;;;1.77;;
56997;SDS011;42890;44.244;22.530;2022-08-01T05:54:20;5.65;;;1.95;;
56997;SDS011;42890;44.244;22.530;2022-08-01T05:56:46;3.13;;;2.22;;
56997;SDS011;42890;44.244;22.530;2022-08-01T05:59:12;2.95;;;1.80;;
56997;SDS011;42890;44.244;22.530;2022-08-01T06:01:38;3.28;;;2.15;;
56997;SDS011;42890;44.244;22.530;2022-08-01T06:04:04;3.88;;;1.90;;
56997;SDS011;42890;44.244;22.530;2022-08-01T06:06:30;5.68;;;2.00;;
56997;SDS011;42890;44.244;22.530;2022-08-01T06:08:56;6.47;;;1.80;;
56997;SDS011;42890;44.244;22.530;2022-08-01T06:11:23;3.67;;;1.90;;
56997;SDS011;42890;44.244;22.530;2022-08-01T06:13:49;4.45;;;2.00;;
56997;SDS011;42890;44.244;22.530;2022-08-01T06:16:15;2.97;;;2.03;;
56997;SDS011;42890;44.244;22.530;2022-08-01T06:18:42;5.72;;;2.30;;
56997;SDS011;42890;44.244;22.530;2022-08-01T06:21:08;4.55;;;1.92;;
56997;SDS011;42890;44.244;22.530;2022-08-01T06:23:34;5.68;;;2.30;;
56997;SDS011;42890;44.244;22.530;2022-08-01T06:26:00;5.47;;;1.85;;
56997;SDS011;42890;44.244;22.530;2022-08-01T06:28:27;14.60;;;1.90;;
56997;SDS011;42890;44.244;22.530;2022-08-01T06:30:53;2.08;;;1.67;;
56997;SDS011;42890;44.244;22.530;2022-08-01T06:33:19;4.47;;;1.80;;
56997;SDS011;42890;44.244;22.530;2022-08-01T06:35:45;4.88;;;1.67;;
56997;SDS011;42890;44.244;22.530;2022-08-01T06:38:12;4.80;;;2.22;;
56997;SDS011;42890;44.244;22.530;2022-08-01T06:40:38;1.85;;;1.60;;
56997;SDS011;42890;44.244;22.530;2022-08-01T06:43:04;3.72;;;1.88;;
56997;SDS011;42890;44.244;22.530;2022-08-01T06:45:30;5.32;;;2.10;;
56997;SDS011;42890;44.244;22.530;2022-08-01T06:47:56;2.55;;;1.50;;
56997;SDS011;42890;44.244;22.530;2022-08-01T06:50:22;2.92;;;1.00;;
56997;SDS011;42890;44.244;22.530;2022-08-01T06:52:48;1.08;;;1.00;;
56997;SDS011;42890;44.244;22.530;2022-08-01T06:55:14;1.75;;;1.13;;
56997;SDS011;42890;44.244;22.530;2022-08-01T06:57:50;1.00;;;1.00;;
56997;SDS011;42890;44.244;22.530;2022-08-01T07:00:18;1.58;;;1.00;;
56997;SDS011;42890;44.244;22.530;2022-08-01T07:02:47;1.40;;;1.23;;
56997;SDS011;42890;44.244;22.530;2022-08-01T07:05:13;1.10;;;1.00;;
56997;SDS011;42890;44.244;22.530;2022-08-01T07:07:40;1.00;;;1.00;;
56997;SDS011;42890;44.244;22.530;2022-08-01T07:10:06;1.77;;;1.08;;
56997;SDS011;42890;44.244;22.530;2022-08-01T07:12:34;1.25;;;1.13;;
56997;SDS011;42890;44.244;22.530;2022-08-01T07:15:05;2.50;;;0.98;;
56997;SDS011;42890;44.244;22.530;2022-08-01T07:17:31;1.95;;;1.05;;
56997;SDS011;42890;44.244;22.530;2022-08-01T07:19:58;2.63;;;1.15;;
56997;SDS011;42890;44.244;22.530;2022-08-01T07:22:24;0.80;;;0.80;;
56997;SDS011;42890;44.244;22.530;2022-08-01T07:24:50;2.05;;;0.95;;
56997;SDS011;42890;44.244;22.530;2022-08-01T07:27:16;1.33;;;0.80;;
56997;SDS011;42890;44.244;22.530;2022-08-01T07:29:42;1.92;;;0.98;;
56997;SDS011;42890;44.244;22.530;2022-08-01T07:32:08;2.80;;;0.90;;
56997;SDS011;42890;44.244;22.530;2022-08-01T07:34:34;1.25;;;0.90;;
56997;SDS011;42890;44.244;22.530;2022-08-01T07:37:01;1.60;;;0.70;;
56997;SDS011;42890;44.244;22.530;2022-08-01T07:39:27;3.13;;;0.70;;
56997;SDS011;42890;44.244;22.530;2022-08-01T07:41:53;5.68;;;1.00;;
56997;SDS011;42890;44.244;22.530;2022-08-01T07:44:19;4.35;;;0.80;;
56997;SDS011;42890;44.244;22.530;2022-08-01T07:46:46;0.95;;;0.80;;
56997;SDS011;42890;44.244;22.530;2022-08-01T07:49:12;2.00;;;0.80;;
56997;SDS011;42890;44.244;22.530;2022-08-01T07:51:38;0.80;;;0.80;;
56997;SDS011;42890;44.244;22.530;2022-08-01T07:54:04;6.90;;;1.30;;
56997;SDS011;42890;44.244;22.530;2022-08-01T07:56:31;4.05;;;0.63;;
56997;SDS011;42890;44.244;22.530;2022-08-01T07:58:57;0.75;;;0.75;;
56997;SDS011;42890;44.244;22.530;2022-08-01T08:01:23;1.17;;;0.70;;
56997;SDS011;42890;44.244;22.530;2022-08-01T08:03:49;1.00;;;0.70;;
56997;SDS011;42890;44.244;22.530;2022-08-01T08:06:16;0.75;;;0.68;;
56997;SDS011;42890;44.244;22.530;2022-08-01T08:08:42;0.70;;;0.70;;
56997;SDS011;42890;44.244;22.530;2022-08-01T08:11:08;3.40;;;0.90;;
56997;SDS011;42890;44.244;22.530;2022-08-01T08:13:34;0.93;;;0.73;;
56997;SDS011;42890;44.244;22.530;2022-08-01T08:16:00;1.25;;;0.75;;
56997;SDS011;42890;44.244;22.530;2022-08-01T08:18:26;0.65;;;0.63;;
56997;SDS011;42890;44.244;22.530;2022-08-01T08:20:52;3.67;;;0.80;;
56997;SDS011;42890;44.244;22.530;2022-08-01T08:23:18;0.85;;;0.60;;
56997;SDS011;42890;44.244;22.530;2022-08-01T08:26:03;0.65;;;0.65;;
56997;SDS011;42890;44.244;22.530;2022-08-01T08:28:29;1.17;;;0.70;;
56997;SDS011;42890;44.244;22.530;2022-08-01T08:30:55;1.30;;;0.80;;
56997;SDS011;42890;44.244;22.530;2022-08-01T08:33:21;0.65;;;0.63;;
56997;SDS011;42890;44.244;22.530;2022-08-01T08:35:47;0.65;;;0.65;;
56997;SDS011;42890;44.244;22.530;2022-08-01T08:38:14;0.88;;;0.63;;
56997;SDS011;42890;44.244;22.530;2022-08-01T08:40:40;6.50;;;0.80;;
56997;SDS011;42890;44.244;22.530;2022-08-01T08:43:06;1.00;;;0.80;;
56997;SDS011;42890;44.244;22.530;2022-08-01T08:45:33;1.50;;;0.60;;
56997;SDS011;42890;44.244;22.530;2022-08-01T08:47:59;1.00;;;0.75;;
56997;SDS011;42890;44.244;22.530;2022-08-01T08:50:26;0.70;;;0.70;;
56997;SDS011;42890;44.244;22.530;2022-08-01T08:52:55;2.20;;;0.70;;
56997;SDS011;42890;44.244;22.530;2022-08-01T08:55:21;2.83;;;0.70;;
56997;SDS011;42890;44.244;22.530;2022-08-01T08:57:48;0.85;;;0.70;;
56997;SDS011;42890;44.244;22.530;2022-08-01T09:00:14;1.77;;;0.80;;
56997;SDS011;42890;44.244;22.530;2022-08-01T09:02:42;0.60;;;0.60;;
56997;SDS011;42890;44.244;22.530;2022-08-01T09:05:08;1.40;;;0.63;;
56997;SDS011;42890;44.244;22.530;2022-08-01T09:07:35;0.73;;;0.50;;
56997;SDS011;42890;44.244;22.530;2022-08-01T09:10:01;0.75;;;0.75;;
56997;SDS011;42890;44.244;22.530;2022-08-01T09:12:27;1.75;;;0.70;;
56997;SDS011;42890;44.244;22.530;2022-08-01T09:14:54;0.90;;;0.60;;
56997;SDS011;42890;44.244;22.530;2022-08-01T09:17:20;0.95;;;0.70;;
56997;SDS011;42890;44.244;22.530;2022-08-01T09:19:49;1.27;;;1.10;;
56997;SDS011;42890;44.244;22.530;2022-08-01T09:22:20;0.93;;;0.80;;
56997;SDS011;42890;44.244;22.530;2022-08-01T09:25:01;4.32;;;0.60;;
56997;SDS011;42890;44.244;22.530;2022-08-01T09:27:29;1.45;;;0.85;;
56997;SDS011;42890;44.244;22.530;2022-08-01T09:30:06;4.13;;;0.70;;
56997;SDS011;42890;44.244;22.530;2022-08-01T09:32:32;1.65;;;0.60;;
56997;SDS011;42890;44.244;22.530;2022-08-01T09:35:02;1.75;;;0.70;;
56997;SDS011;42890;44.244;22.530;2022-08-01T09:37:45;0.60;;;0.60;;
56997;SDS011;42890;44.244;22.530;2022-08-01T09:40:11;1.35;;;0.60;;
56997;SDS011;42890;44.244;22.530;2022-08-01T09:42:37;0.95;;;0.60;;
56997;SDS011;42890;44.244;22.530;2022-08-01T09:45:03;0.77;;;0.60;;
56997;SDS011;42890;44.244;22.530;2022-08-01T09:47:39;1.10;;;0.60;;
56997;SDS011;42890;44.244;22.530;2022-08-01T09:50:05;0.60;;;0.60;;
56997;SDS011;42890;44.244;22.530;2022-08-01T09:52:32;1.38;;;1.05;;
56997;SDS011;42890;44.244;22.530;2022-08-01T09:54:59;1.40;;;0.63;;
56997;SDS011;42890;44.244;22.530;2022-08-01T09:57:26;0.70;;;0.60;;
56997;SDS011;42890;44.244;22.530;2022-08-01T09:59:54;1.13;;;0.60;;
56997;SDS011;42890;44.244;22.530;2022-08-01T10:04:53;0.45;;;0.45;;
56997;SDS011;42890;44.244;22.530;2022-08-01T10:07:19;0.60;;;0.60;;
56997;SDS011;42890;44.244;22.530;2022-08-01T10:09:47;1.02;;;0.80;;
56997;SDS011;42890;44.244;22.530;2022-08-01T10:12:14;0.52;;;0.52;;
56997;SDS011;42890;44.244;22.530;2022-08-01T10:14:41;1.38;;;0.63;;
56997;SDS011;42890;44.244;22.530;2022-08-01T10:17:09;0.73;;;0.50;;
56997;SDS011;42890;44.244;22.530;2022-08-01T10:19:36;0.50;;;0.50;;
56997;SDS011;42890;44.244;22.530;2022-08-01T10:22:04;0.70;;;0.70;;
56997;SDS011;42890;44.244;22.530;2022-08-01T10:24:31;0.50;;;0.50;;
56997;SDS011;42890;44.244;22.530;2022-08-01T10:26:58;1.88;;;0.65;;
56997;SDS011;42890;44.244;22.530;2022-08-01T10:29:27;2.00;;;0.65;;
56997;SDS011;42890;44.244;22.530;2022-08-01T10:31:54;0.60;;;0.50;;
56997;SDS011;42890;44.244;22.530;2022-08-01T10:34:20;1.50;;;0.47;;
56997;SDS011;42890;44.244;22.530;2022-08-01T10:36:47;0.40;;;0.40;;
56997;SDS011;42890;44.244;22.530;2022-08-01T10:39:13;0.40;;;0.40;;
56997;SDS011;42890;44.244;22.530;2022-08-01T10:41:40;0.65;;;0.60;;
56997;SDS011;42890;44.244;22.530;2022-08-01T10:44:07;1.13;;;0.40;;
56997;SDS011;42890;44.244;22.530;2022-08-01T10:46:48;0.80;;;0.60;;
56997;SDS011;42890;44.244;22.530;2022-08-01T10:49:16;1.60;;;0.70;;
56997;SDS011;42890;44.244;22.530;2022-08-01T10:51:43;0.50;;;0.50;;
56997;SDS011;42890;44.244;22.530;2022-08-01T10:54:10;3.85;;;0.68;;
56997;SDS011;42890;44.244;22.530;2022-08-01T10:56:43;9.40;;;0.70;;
56997;SDS011;42890;44.244;22.530;2022-08-01T10:59:14;2.75;;;0.57;;
56997;SDS011;42890;44.244;22.530;2022-08-01T11:01:40;0.45;;;0.45;;
56997;SDS011;42890;44.244;22.530;2022-08-01T11:04:10;0.40;;;0.40;;
56997;SDS011;42890;44.244;22.530;2022-08-01T11:06:49;0.65;;;0.60;;
56997;SDS011;42890;44.244;22.530;2022-08-01T11:09:20;1.25;;;0.70;;
56997;SDS011;42890;44.244;22.530;2022-08-01T11:12:05;0.40;;;0.40;;
56997;SDS011;42890;44.244;22.530;2022-08-01T11:14:34;0.43;;;0.43;;
56997;SDS011;42890;44.244;22.530;2022-08-01T11:22:30;1.67;;;0.50;;
56997;SDS011;42890;44.244;22.530;2022-08-01T11:24:56;1.25;;;0.57;;
56997;SDS011;42890;44.244;22.530;2022-08-01T11:27:27;1.02;;;0.50;;
56997;SDS011;42890;44.244;22.530;2022-08-01T11:32:52;0.73;;;0.60;;
56997;SDS011;42890;44.244;22.530;2022-08-01T11:35:18;0.63;;;0.63;;
56997;SDS011;42890;44.244;22.530;2022-08-01T11:37:54;2.60;;;0.75;;
56997;SDS011;42890;44.244;22.530;2022-08-01T11:42:48;0.82;;;0.60;;
56997;SDS011;42890;44.244;22.530;2022-08-01T11:45:14;0.60;;;0.60;;
56997;SDS011;42890;44.244;22.530;2022-08-01T11:47:44;0.85;;;0.60;;
56997;SDS011;42890;44.244;22.530;2022-08-01T11:52:59;0.98;;;0.50;;
56997;SDS011;42890;44.244;22.530;2022-08-01T11:55:26;1.95;;;0.70;;
56997;SDS011;42890;44.244;22.530;2022-08-01T11:57:59;0.60;;;0.60;;
56997;SDS011;42890;44.244;22.530;2022-08-01T12:00:26;1.05;;;0.70;;
56997;SDS011;42890;44.244;22.530;2022-08-01T12:03:03;0.60;;;0.60;;
56997;SDS011;42890;44.244;22.530;2022-08-01T12:05:30;0.60;;;0.60;;
56997;SDS011;42890;44.244;22.530;2022-08-01T12:07:58;0.90;;;0.60;;
56997;SDS011;42890;44.244;22.530;2022-08-01T12:10:28;0.60;;;0.60;;
56997;SDS011;42890;44.244;22.530;2022-08-01T12:13:00;0.40;;;0.40;;
56997;SDS011;42890;44.244;22.530;2022-08-01T12:15:45;1.73;;;0.68;;
56997;SDS011;42890;44.244;22.530;2022-08-01T12:18:11;3.67;;;0.80;;
56997;SDS011;42890;44.244;22.530;2022-08-01T12:20:39;1.85;;;0.75;;
56997;SDS011;42890;44.244;22.530;2022-08-01T12:23:06;1.02;;;0.50;;
56997;SDS011;42890;44.244;22.530;2022-08-01T12:25:34;1.25;;;0.80;;
56997;SDS011;42890;44.244;22.530;2022-08-01T12:28:01;1.15;;;0.88;;
56997;SDS011;42890;44.244;22.530;2022-08-01T12:30:28;0.93;;;0.80;;
56997;SDS011;42890;44.244;22.530;2022-08-01T12:32:55;2.15;;;0.60;;
56997;SDS011;42890;44.244;22.530;2022-08-01T12:35:26;0.45;;;0.45;;
56997;SDS011;42890;44.244;22.530;2022-08-01T12:37:53;1.65;;;0.73;;
56997;SDS011;42890;44.244;22.530;2022-08-01T12:40:20;2.05;;;0.80;;
56997;SDS011;42890;44.244;22.530;2022-08-01T12:42:48;3.10;;;0.80;;
56997;SDS011;42890;44.244;22.530;2022-08-01T12:45:15;1.25;;;0.88;;
56997;SDS011;42890;44.244;22.530;2022-08-01T12:47:42;2.58;;;0.70;;
56997;SDS011;42890;44.244;22.530;2022-08-01T12:50:11;1.08;;;0.50;;
56997;SDS011;42890;44.244;22.530;2022-08-01T12:52:37;0.77;;;0.77;;
56997;SDS011;42890;44.244;22.530;2022-08-01T12:57:30;0.75;;;0.75;;
56997;SDS011;42890;44.244;22.530;2022-08-01T13:00:13;1.55;;;0.63;;
56997;SDS011;42890;44.244;22.530;2022-08-01T13:02:40;0.73;;;0.60;;
56997;SDS011;42890;44.244;22.530;2022-08-01T13:05:06;1.10;;;0.90;;
56997;SDS011;42890;44.244;22.530;2022-08-01T13:07:38;1.02;;;0.95;;
56997;SDS011;42890;44.244;22.530;2022-08-01T13:10:05;1.75;;;1.10;;
56997;SDS011;42890;44.244;22.530;2022-08-01T13:12:31;1.08;;;0.90;;
56997;SDS011;42890;44.244;22.530;2022-08-01T13:14:57;2.22;;;0.75;;
56997;SDS011;42890;44.244;22.530;2022-08-01T13:17:33;1.23;;;0.90;;
56997;SDS011;42890;44.244;22.530;2022-08-01T13:20:03;1.42;;;0.80;;
56997;SDS011;42890;44.244;22.530;2022-08-01T13:22:34;1.38;;;0.90;;
56997;SDS011;42890;44.244;22.530;2022-08-01T13:25:13;0.70;;;0.70;;
56997;SDS011;42890;44.244;22.530;2022-08-01T13:27:39;1.00;;;0.90;;
56997;SDS011;42890;44.244;22.530;2022-08-01T13:30:19;3.05;;;0.80;;
56997;SDS011;42890;44.244;22.530;2022-08-01T13:32:57;2.85;;;0.63;;
56997;SDS011;42890;44.244;22.530;2022-08-01T13:35:23;0.90;;;0.65;;
56997;SDS011;42890;44.244;22.530;2022-08-01T13:37:49;1.25;;;0.60;;
56997;SDS011;42890;44.244;22.530;2022-08-01T13:40:23;0.63;;;0.63;;
56997;SDS011;42890;44.244;22.530;2022-08-01T13:42:50;1.88;;;0.60;;
56997;SDS011;42890;44.244;22.530;2022-08-01T13:45:16;0.63;;;0.60;;
56997;SDS011;42890;44.244;22.530;2022-08-01T13:47:43;2.10;;;0.70;;
56997;SDS011;42890;44.244;22.530;2022-08-01T13:50:10;0.65;;;0.60;;
56997;SDS011;42890;44.244;22.530;2022-08-01T13:52:36;0.93;;;0.80;;
56997;SDS011;42890;44.244;22.530;2022-08-01T13:55:02;0.63;;;0.63;;
56997;SDS011;42890;44.244;22.530;2022-08-01T13:57:28;0.60;;;0.60;;
56997;SDS011;42890;44.244;22.530;2022-08-01T13:59:55;0.60;;;0.60;;
56997;SDS011;42890;44.244;22.530;2022-08-01T14:02:25;1.23;;;0.57;;
56997;SDS011;42890;44.244;22.530;2022-08-01T14:04:52;2.67;;;0.65;;
56997;SDS011;42890;44.244;22.530;2022-08-01T14:07:19;1.50;;;0.50;;
56997;SDS011;42890;44.244;22.530;2022-08-01T14:09:46;0.70;;;0.70;;
56997;SDS011;42890;44.244;22.530;2022-08-01T14:12:12;0.60;;;0.60;;
56997;SDS011;42890;44.244;22.530;2022-08-01T14:14:38;0.60;;;0.60;;
56997;SDS011;42890;44.244;22.530;2022-08-01T14:17:04;2.03;;;1.08;;
56997;SDS011;42890;44.244;22.530;2022-08-01T14:19:31;0.60;;;0.60;;
56997;SDS011;42890;44.244;22.530;2022-08-01T14:21:57;2.40;;;0.70;;
56997;SDS011;42890;44.244;22.530;2022-08-01T14:24:23;2.20;;;0.57;;
56997;SDS011;42890;44.244;22.530;2022-08-01T14:26:51;2.13;;;0.60;;
56997;SDS011;42890;44.244;22.530;2022-08-01T14:29:17;2.05;;;0.80;;
56997;SDS011;42890;44.244;22.530;2022-08-01T14:31:43;1.08;;;0.98;;
56997;SDS011;42890;44.244;22.530;2022-08-01T14:34:09;0.98;;;0.88;;
56997;SDS011;42890;44.244;22.530;2022-08-01T14:36:38;7.40;;;0.80;;
56997;SDS011;42890;44.244;22.530;2022-08-01T14:39:04;0.70;;;0.70;;
56997;SDS011;42890;44.244;22.530;2022-08-01T14:41:30;5.82;;;0.95;;
56997;SDS011;42890;44.244;22.530;2022-08-01T14:43:56;1.45;;;0.70;;
56997;SDS011;42890;44.244;22.530;2022-08-01T14:46:24;0.60;;;0.60;;
56997;SDS011;42890;44.244;22.530;2022-08-01T14:48:51;1.35;;;0.68;;
56997;SDS011;42890;44.244;22.530;2022-08-01T14:51:17;0.60;;;0.60;;
56997;SDS011;42890;44.244;22.530;2022-08-01T14:53:43;2.80;;;0.70;;
56997;SDS011;42890;44.244;22.530;2022-08-01T14:56:09;0.60;;;0.60;;
56997;SDS011;42890;44.244;22.530;2022-08-01T14:58:35;2.50;;;0.70;;
56997;SDS011;42890;44.244;22.530;2022-08-01T15:01:02;0.60;;;0.60;;
56997;SDS011;42890;44.244;22.530;2022-08-01T15:03:29;4.22;;;0.73;;
56997;SDS011;42890;44.244;22.530;2022-08-01T15:05:56;1.13;;;1.00;;
56997;SDS011;42890;44.244;22.530;2022-08-01T15:08:23;4.93;;;0.85;;